North Dighton, MA

41° 51' 30"N, 71° 08' 44"W, Elevation 95 ft.
Eastern Time

Hourly observations for the last 72 hours

Date Time Temperature (°F) Humi-
dity

(%)
Wind
(mph)
Pressure Rain (in) Sun
(W/m2)
UV ET
(in)
Air Dew 6 Hour 1 Hr 3 Hr 6 Hr Day
Alt
(in)
Sea
Level

(mb)
Max Min
24 02:00 61.4 60.2 69.9 61.2 96 Calm 29.80 1009.3 0.00 0 0.0 0.000
24 01:00 63.0 61.8 96 WSW 1 G 3 29.81 1009.4 0.00 0 0.0 0.000
24 00:00 63.7 61.9 94 WSW 0 G 1 29.81 1009.4 0.98 0 0.0 0.070
23 23:00 65.3 63.8 95 SSW 1 G 5 29.81 1009.4 0.98 0 0.0 0.070
23 22:00 65.3 63.5 94 SW 2 G 5 29.80 1009.1 0.98 0 0.0 0.070
23 21:00 66.8 64.4 92 S 3 G 7 29.78 1008.4 0.98 0 0.0 0.070
23 20:00 69.8 66.4 74.4 64.3 89 S 4 G 7 29.77 1008.2 0.01 0.98 7 0.0 0.069
23 19:00 71.9 67.8 87 SW 2 G 5 29.76 1008.0 0.98 72 0.0 0.066
23 18:00 73.1 68.7 86 WSW 3 G 10 29.76 1007.9 0.98 165 0.5 0.058
23 17:00 72.4 69.0 89 SSW 2 G 8 29.77 1008.3 0.01 0.98 373 1.4 0.048
23 16:00 68.6 67.1 95 SW 2 G 5 29.80 1009.0 0.98 793 3.0 0.040
23 15:00 66.9 65.7 96 S 7 G 12 29.79 1008.8 0.01 0.98 316 1.8 0.034
23 14:00 64.3 62.8 68.5 61.6 95 E 3 G 5 29.78 1008.6 0.20 0.65 0.72 0.97 70 0.0 0.033
23 13:00 63.5 61.7 94 N 6 G 9 29.84 1010.6 0.24 0.77 21 0.0 0.032
23 12:00 63.6 61.2 92 S 0 G 7 29.82 1009.9 0.21 0.53 46 0.0 0.030
23 11:00 68.1 64.4 88 S 4 G 11 29.83 1010.2 0.07 0.32 269 2.0 0.022
23 10:00 68.0 64.6 89 S 4 G 9 29.80 1009.2 0.32 383 2.0 0.009
23 09:00 63.5 61.7 94 S 8 G 13 29.83 1010.1 0.07 0.32 387 1.9 0.005
23 08:00 62.2 59.8 64.1 58.5 92 SE 3 G 7 29.84 1010.4 0.25 0.25 0.25 0.25 28 0.0 0.002
23 07:00 61.8 58.8 90 S 3 G 8 29.82 1009.8 0.00 185 0.0 0.000
23 06:00 59.2 57.2 93 S 5 G 14 29.83 1010.2 0.00 47 0.0 0.000
23 05:00 58.7 56.7 93 S 3 G 9 29.83 1010.0 0.00 0 0.0 0.000
23 04:00 59.1 56.8 92 S 5 G 9 29.84 1010.5 0.00 0 0.0 0.000
23 03:00 59.6 57.3 92 S 5 G 9 29.84 1010.6 0.00 0 0.0 0.000
23 02:00 59.5 57.2 67.0 59.5 92 SSW 5 G 10 29.84 1010.7 0.00 0 0.0 0.000
23 01:00 59.6 57.3 92 S 2 G 8 29.86 1011.2 0.00 0 0.0 0.000
23 00:00 59.8 57.5 92 SSW 3 G 9 29.85 1010.9 0.00 0 0.0 0.248
22 23:00 60.2 56.9 89 SSE 6 G 10 29.86 1011.1 0.00 0 0.0 0.248
22 22:00 61.3 56.4 84 SW 4 G 10 29.88 1011.8 0.00 0 0.0 0.248
22 21:00 63.8 56.8 78 S 4 G 7 29.86 1011.4 0.00 0 0.0 0.248
22 20:00 67.0 57.7 81.2 67.0 72 SSW 8 G 11 29.86 1011.1 0.00 5 0.0 0.246
22 19:00 70.9 59.4 67 SSW 10 G 18 29.86 1011.2 0.00 116 0.0 0.239
22 18:00 73.0 61.0 66 SSE 8 G 20 29.86 1011.2 0.00 295 0.6 0.226
22 17:00 75.9 63.3 65 S 12 G 21 29.85 1011.0 0.00 482 1.6 0.207
22 16:00 77.5 63.5 62 S 14 G 26 29.86 1011.2 0.00 654 2.9 0.182
22 15:00 79.3 64.7 61 S 16 G 23 29.86 1011.3 0.00 789 4.3 0.153
22 14:00 81.2 65.5 82.6 65.1 59 S 12 G 25 29.88 1011.7 0.00 888 5.6 0.122
22 13:00 81.9 65.2 57 SSW 8 G 17 29.89 1012.2 0.00 935 6.4 0.091
22 12:00 81.7 65.5 58 SSW 8 G 16 29.91 1012.8 0.00 926 6.3 0.062
22 11:00 79.6 66.8 65 SSW 6 G 13 29.92 1013.4 0.00 865 5.4 0.038
22 10:00 76.4 65.9 70 WSW 6 G 12 29.93 1013.6 0.00 752 4.0 0.019
22 09:00 71.4 63.8 77 SSW 2 G 5 29.95 1014.1 0.00 543 2.5 0.008
22 08:00 65.1 60.5 65.1 53.8 85 SW 3 G 8 29.96 1014.5 0.00 355 1.2 0.002
22 07:00 58.1 57.0 96 SSW 2 G 6 29.97 1014.8 0.00 178 0.0 0.000
22 06:00 54.3 52.9 95 SSW 3 G 8 29.93 1013.7 0.00 25 0.0 0.000
22 05:00 54.1 52.4 94 SW 0 G 3 29.92 1013.3 0.00 0 0.0 0.000
22 04:00 54.8 53.1 94 SSW 4 G 8 29.91 1013.0 0.00 0 0.0 0.000
22 03:00 55.1 53.4 94 SSW 3 G 7 29.92 1013.2 0.00 0 0.0 0.000
22 02:00 55.4 53.7 62.2 55.4 94 S 5 G 7 29.92 1013.3 0.00 0 0.0 0.000
22 01:00 56.0 54.0 93 SSW 2 G 4 29.93 1013.5 0.00 0 0.0 0.000
22 00:00 56.9 54.6 92 SSW 3 G 8 29.93 1013.7 0.00 0 0.0 0.204
21 23:00 57.3 54.7 91 S 3 G 9 29.94 1014.0 0.00 0 0.0 0.204
21 22:00 58.7 55.5 89 N 2 G 3 29.96 1014.6 0.00 0 0.0 0.204
21 21:00 59.9 56.0 87 S 4 G 7 29.93 1013.7 0.00 0 0.0 0.204
21 20:00 62.2 57.0 75.7 62.2 83 S 3 G 7 29.92 1013.1 0.00 0 0.0 0.203
21 19:00 66.2 58.8 77 SSW 8 G 15 29.91 1012.9 0.00 121 0.0 0.197
21 18:00 68.1 59.9 75 S 11 G 15 29.91 1012.7 0.00 265 0.6 0.186
21 17:00 70.9 61.0 71 S 10 G 16 29.90 1012.6 0.00 469 1.5 0.169
21 16:00 74.4 64.0 70 S 9 G 15 29.90 1012.6 0.00 622 2.9 0.148
21 15:00 74.5 64.1 70 SSW 7 G 12 29.91 1012.8 0.00 689 4.1 0.124
21 14:00 75.6 65.5 75.9 54.1 71 S 6 G 14 29.92 1013.1 0.00 875 5.8 0.097
21 13:00 73.8 64.2 72 SSW 8 G 13 29.93 1013.5 0.00 918 6.5 0.070
21 12:00 72.2 63.5 74 SSW 4 G 11 29.95 1014.2 0.00 879 6.3 0.046
21 11:00 69.3 62.2 78 SSE 9 G 11 29.96 1014.7 0.00 837 5.4 0.025
21 10:00 63.7 59.1 85 SSE 7 G 9 29.98 1015.2 0.00 715 3.8 0.010
21 09:00 56.6 55.5 96 SE 6 G 10 29.99 1015.4 0.00 338 2.0 0.004
21 08:00 54.2 53.4 54.2 50.1 97 S 6 G 9 29.98 1015.4 0.00 213 0.7 0.001
21 07:00 52.7 51.9 97 SSW 3 G 7 29.98 1015.3 0.00 90 0.0 0.000
21 06:00 52.1 51.0 96 SSW 2 G 4 29.98 1015.2 0.00 21 0.0 0.000
21 05:00 51.1 50.0 96 S 3 G 7 29.96 1014.7 0.00 0 0.0 0.000
21 04:00 50.4 49.3 96 S 1 G 4 29.96 1014.7 0.00 0 0.0 0.000
21 03:00 50.3 49.2 96 S 3 G 6 29.97 1014.9 0.00 0 0.0 0.000

Data generated by WxSolution Version 1.9.2, Build 2023.03.05.